createdAt,value
2018-07-02T00:00:20.079Z,1018.30
2018-07-02T00:01:20.101Z,1018.32
2018-07-02T00:02:20.130Z,1018.30
2018-07-02T00:03:20.156Z,1018.24
2018-07-02T00:04:20.174Z,1018.21
2018-07-02T00:05:20.197Z,1018.20
2018-07-02T00:06:20.219Z,1018.17
2018-07-02T00:07:20.242Z,1018.16
2018-07-02T00:08:20.273Z,1018.13
2018-07-02T00:09:20.293Z,1018.15
2018-07-02T00:10:20.313Z,1018.19
2018-07-02T00:11:20.378Z,1018.21
2018-07-02T00:12:20.363Z,1018.18
2018-07-02T00:13:20.386Z,1018.25
2018-07-02T00:14:20.411Z,1018.26
2018-07-02T00:15:20.436Z,1018.31
2018-07-02T00:16:20.454Z,1018.27
2018-07-02T00:17:20.478Z,1018.29
2018-07-02T00:18:20.503Z,1018.26
2018-07-02T00:19:20.526Z,1018.25
2018-07-02T00:20:20.553Z,1018.24
2018-07-02T00:21:20.569Z,1018.27
2018-07-02T00:22:20.597Z,1018.27
2018-07-02T00:23:20.615Z,1018.23
2018-07-02T00:24:20.643Z,1018.25
2018-07-02T00:25:20.668Z,1018.25
2018-07-02T00:26:20.690Z,1018.23
2018-07-02T00:27:20.716Z,1018.22
2018-07-02T00:28:20.736Z,1018.21
2018-07-02T00:29:20.757Z,1018.19
2018-07-02T00:30:20.778Z,1018.16
2018-07-02T00:31:20.803Z,1018.17
2018-07-02T00:32:20.831Z,1018.20
2018-07-02T00:33:20.852Z,1018.20
2018-07-02T00:34:20.874Z,1018.18
2018-07-02T00:35:20.900Z,1018.18
2018-07-02T00:36:20.926Z,1018.17
2018-07-02T00:37:20.948Z,1018.20
2018-07-02T00:38:20.974Z,1018.23
2018-07-02T00:39:20.991Z,1018.24
2018-07-02T00:40:21.011Z,1018.21
2018-07-02T00:41:21.036Z,1018.19
2018-07-02T00:42:21.064Z,1018.21
2018-07-02T00:43:21.085Z,1018.23
2018-07-02T00:44:21.105Z,1018.22
2018-07-02T00:45:21.127Z,1018.21
2018-07-02T00:46:21.153Z,1018.22
2018-07-02T00:47:21.176Z,1018.19
2018-07-02T00:48:21.203Z,1018.17
2018-07-02T00:49:21.227Z,1018.17
2018-07-02T00:50:21.246Z,1018.17
2018-07-02T00:51:21.267Z,1018.15
2018-07-02T00:52:21.295Z,1018.13
2018-07-02T00:53:21.318Z,1018.14
2018-07-02T00:54:21.343Z,1018.12
2018-07-02T00:55:21.366Z,1018.16
2018-07-02T00:56:21.385Z,1018.12
2018-07-02T00:57:21.409Z,1018.14
2018-07-02T00:58:21.435Z,1018.14
2018-07-02T00:59:21.459Z,1018.15
2018-07-02T01:00:21.482Z,1018.17
2018-07-02T01:01:21.503Z,1018.15
2018-07-02T01:02:21.524Z,1018.12
2018-07-02T01:03:21.545Z,1018.10
2018-07-02T01:04:21.576Z,1018.11
2018-07-02T01:05:21.597Z,1018.12
2018-07-02T01:06:21.618Z,1018.13
2018-07-02T01:07:21.640Z,1018.08
2018-07-02T01:08:21.668Z,1018.13
2018-07-02T01:09:21.690Z,1018.08
2018-07-02T01:10:21.713Z,1018.05
2018-07-02T01:11:21.735Z,1018.05
2018-07-02T01:12:21.756Z,1018.03
2018-07-02T01:13:21.780Z,1018.01
2018-07-02T01:14:21.806Z,1018.03
2018-07-02T01:15:21.843Z,1018.05
2018-07-02T01:16:21.848Z,1018.07
2018-07-02T01:17:21.872Z,1018.04
2018-07-02T01:18:21.898Z,1018.06
2018-07-02T01:19:21.920Z,1018.04
2018-07-02T01:20:21.946Z,1018.07
2018-07-02T01:21:21.969Z,1018.06
2018-07-02T01:22:21.987Z,1018.08
2018-07-02T01:23:22.010Z,1018.09
2018-07-02T01:24:22.038Z,1018.11
2018-07-02T01:25:22.064Z,1018.08
2018-07-02T01:26:22.086Z,1018.07
2018-07-02T01:27:22.108Z,1018.09
2018-07-02T01:28:22.128Z,1018.07
2018-07-02T01:29:22.157Z,1018.04
2018-07-02T01:30:22.176Z,1018.06
2018-07-02T01:31:22.201Z,1018.02
2018-07-02T01:32:22.219Z,1018.03
2018-07-02T01:33:22.242Z,1018.05
2018-07-02T01:34:22.268Z,1018.03
2018-07-02T01:35:22.290Z,1018.07
2018-07-02T01:36:22.317Z,1018.05
2018-07-02T01:37:22.341Z,1018.06
2018-07-02T01:38:22.361Z,1018.07
2018-07-02T01:39:22.383Z,1018.05
2018-07-02T01:40:22.408Z,1018.00
2018-07-02T01:41:22.434Z,1018.01
2018-07-02T01:42:22.457Z,1017.98
2018-07-02T01:43:22.479Z,1017.98
2018-07-02T01:44:22.500Z,1017.99
2018-07-02T01:45:22.526Z,1017.98
2018-07-02T01:46:22.551Z,1017.98
2018-07-02T01:47:22.573Z,1018.01
2018-07-02T01:48:22.593Z,1018.01
2018-07-02T01:49:22.615Z,1018.05
2018-07-02T01:50:22.636Z,1018.06
2018-07-02T01:51:22.661Z,1018.05
2018-07-02T01:52:22.687Z,1018.06
2018-07-02T01:53:22.710Z,1018.00
2018-07-02T01:54:22.731Z,1018.00
2018-07-02T01:55:22.753Z,1018.02
2018-07-02T01:56:22.783Z,1018.01
2018-07-02T01:57:22.808Z,1017.97
2018-07-02T01:58:22.827Z,1017.99
2018-07-02T01:59:22.850Z,1017.96
2018-07-02T02:00:22.867Z,1017.97
2018-07-02T02:01:22.891Z,1017.95
2018-07-02T02:02:22.919Z,1017.92
2018-07-02T02:03:22.941Z,1017.94
2018-07-02T02:04:22.962Z,1017.97
2018-07-02T02:05:22.985Z,1017.93
2018-07-02T02:06:23.013Z,1017.95
2018-07-02T02:07:23.033Z,1017.93
2018-07-02T02:08:23.058Z,1017.96
2018-07-02T02:09:23.081Z,1017.94
2018-07-02T02:10:23.101Z,1017.96
2018-07-02T02:11:23.122Z,1017.93
2018-07-02T02:12:23.151Z,1017.96
2018-07-02T02:13:23.173Z,1017.93
2018-07-02T02:14:23.205Z,1017.94
2018-07-02T02:15:23.220Z,1017.95
2018-07-02T02:16:23.243Z,1017.92
2018-07-02T02:17:23.264Z,1017.92
2018-07-02T02:18:23.290Z,1017.94
2018-07-02T02:19:23.312Z,1017.92
2018-07-02T02:20:23.333Z,1017.89
2018-07-02T02:21:23.356Z,1017.91
2018-07-02T02:22:23.377Z,1017.86
2018-07-02T02:23:23.400Z,1017.86
2018-07-02T02:24:23.427Z,1017.83
2018-07-02T02:25:23.452Z,1017.83
2018-07-02T02:26:23.471Z,1017.80
2018-07-02T02:27:23.511Z,1017.83
2018-07-02T02:28:23.557Z,1017.82
2018-07-02T02:29:23.541Z,1017.88
2018-07-02T02:30:23.567Z,1017.87
2018-07-02T02:31:23.591Z,1017.89
2018-07-02T02:32:23.608Z,1017.90
2018-07-02T02:33:23.630Z,1017.90
2018-07-02T02:34:23.658Z,1017.90
2018-07-02T02:35:23.679Z,1017.87
2018-07-02T02:36:23.707Z,1017.88
2018-07-02T02:37:23.728Z,1017.91
2018-07-02T02:38:23.761Z,1017.84
2018-07-02T02:39:23.774Z,1017.87
2018-07-02T02:40:23.794Z,1017.79
2018-07-02T02:41:23.817Z,1017.86
2018-07-02T02:42:23.842Z,1017.85
2018-07-02T02:43:23.866Z,1017.82
2018-07-02T02:44:23.887Z,1017.81
2018-07-02T02:45:23.915Z,1017.81
2018-07-02T02:46:23.938Z,1017.79
2018-07-02T02:47:23.956Z,1017.79
2018-07-02T02:48:23.986Z,1017.77
2018-07-02T02:49:24.005Z,1017.80
2018-07-02T02:50:24.027Z,1017.77
2018-07-02T02:51:24.048Z,1017.79
2018-07-02T02:52:24.074Z,1017.81
2018-07-02T02:53:24.098Z,1017.81
2018-07-02T02:54:24.119Z,1017.83
2018-07-02T02:55:24.144Z,1017.88
2018-07-02T02:56:24.161Z,1017.87
2018-07-02T02:57:24.185Z,1017.85
2018-07-02T02:58:24.215Z,1017.87
2018-07-02T02:59:24.236Z,1017.90
2018-07-02T03:00:24.254Z,1017.97
2018-07-02T03:01:24.279Z,1017.84
2018-07-02T03:02:24.300Z,1017.83
2018-07-02T03:03:24.322Z,1017.86
2018-07-02T03:04:24.351Z,1017.89
2018-07-02T03:05:24.372Z,1017.93
2018-07-02T03:06:24.392Z,1017.88
2018-07-02T03:07:24.418Z,1017.90
2018-07-02T03:08:24.444Z,1017.90
2018-07-02T03:09:24.466Z,1017.94
2018-07-02T03:10:24.490Z,1017.96
2018-07-02T03:11:24.513Z,1017.93
2018-07-02T03:12:24.537Z,1017.96
2018-07-02T03:13:24.556Z,1017.96
2018-07-02T03:14:24.581Z,1017.92
2018-07-02T03:15:24.603Z,1017.91
2018-07-02T03:16:24.622Z,1017.95
2018-07-02T03:17:24.646Z,1017.93
2018-07-02T03:18:24.670Z,1017.95
2018-07-02T03:19:24.692Z,1018.00
2018-07-02T03:20:24.744Z,1017.95
2018-07-02T03:21:24.743Z,1017.96
2018-07-02T03:22:24.763Z,1018.02
2018-07-02T03:23:24.788Z,1017.98
2018-07-02T03:24:24.812Z,1017.99
2018-07-02T03:25:24.838Z,1018.02
2018-07-02T03:26:24.860Z,1018.01
2018-07-02T03:27:24.880Z,1018.08
2018-07-02T03:28:24.900Z,1018.14
2018-07-02T03:29:24.923Z,1018.10
2018-07-02T03:30:24.952Z,1018.12
2018-07-02T03:31:24.976Z,1018.19
2018-07-02T03:32:24.998Z,1018.18
2018-07-02T03:33:25.020Z,1018.23
2018-07-02T03:34:25.042Z,1018.22
2018-07-02T03:35:25.064Z,1018.23
2018-07-02T03:36:25.092Z,1018.26
2018-07-02T03:37:25.116Z,1018.26
2018-07-02T03:38:25.141Z,1018.24
2018-07-02T03:39:25.161Z,1018.29
2018-07-02T03:40:25.189Z,1018.28
2018-07-02T03:41:25.214Z,1018.29
2018-07-02T03:42:25.238Z,1018.28
2018-07-02T03:43:25.261Z,1018.29
2018-07-02T03:44:25.284Z,1018.28
2018-07-02T03:45:25.305Z,1018.24
2018-07-02T03:46:25.336Z,1018.26
2018-07-02T03:47:25.361Z,1018.27
2018-07-02T03:48:25.382Z,1018.33
2018-07-02T03:49:25.408Z,1018.35
2018-07-02T03:50:25.431Z,1018.34
2018-07-02T03:51:25.455Z,1018.30
2018-07-02T03:52:25.484Z,1018.30
2018-07-02T03:53:25.513Z,1018.30
2018-07-02T03:54:25.536Z,1018.28
2018-07-02T03:55:25.555Z,1018.26
2018-07-02T03:56:25.587Z,1018.25
2018-07-02T03:57:25.611Z,1018.24
2018-07-02T03:58:25.638Z,1018.19
2018-07-02T03:59:25.663Z,1018.22
2018-07-02T04:00:25.687Z,1018.22
2018-07-02T04:01:25.789Z,1018.22
2018-07-02T04:02:25.740Z,1018.24
2018-07-02T04:03:25.764Z,1018.25
2018-07-02T04:04:25.790Z,1018.29
2018-07-02T04:05:25.814Z,1018.29
2018-07-02T04:06:25.840Z,1018.32
2018-07-02T04:07:25.864Z,1018.34
2018-07-02T04:08:25.894Z,1018.29
2018-07-02T04:09:25.920Z,1018.33
2018-07-02T04:10:25.941Z,1018.37
2018-07-02T04:11:25.967Z,1018.35
2018-07-02T04:12:25.999Z,1018.30
2018-07-02T04:13:26.024Z,1018.34
2018-07-02T04:14:26.048Z,1018.34
2018-07-02T04:15:26.075Z,1018.34
2018-07-02T04:16:26.097Z,1018.33
2018-07-02T04:17:26.126Z,1018.34
2018-07-02T04:18:26.156Z,1018.33
2018-07-02T04:19:26.182Z,1018.33
2018-07-02T04:20:26.206Z,1018.36
2018-07-02T04:21:26.234Z,1018.35
2018-07-02T04:22:26.260Z,1018.36
2018-07-02T04:23:26.286Z,1018.40
2018-07-02T04:24:26.318Z,1018.35
2018-07-02T04:25:26.346Z,1018.33
2018-07-02T04:26:26.371Z,1018.32
2018-07-02T04:27:26.400Z,1018.34
2018-07-02T04:28:26.434Z,1018.35
2018-07-02T04:29:26.458Z,1018.34
2018-07-02T04:30:26.489Z,1018.39
2018-07-02T04:31:26.518Z,1018.41
2018-07-02T04:32:26.547Z,1018.46
2018-07-02T04:33:26.572Z,1018.42
2018-07-02T04:34:26.605Z,1018.43
2018-07-02T04:35:26.633Z,1018.45
2018-07-02T04:36:26.662Z,1018.41
2018-07-02T04:37:26.687Z,1018.48
2018-07-02T04:38:26.719Z,1018.46
2018-07-02T04:39:26.749Z,1018.51
2018-07-02T04:40:26.783Z,1018.46
2018-07-02T04:41:26.813Z,1018.44
2018-07-02T04:42:26.843Z,1018.43
2018-07-02T04:43:26.873Z,1018.35
2018-07-02T04:44:26.899Z,1018.36
2018-07-02T04:45:26.931Z,1018.32
2018-07-02T04:46:26.959Z,1018.34
2018-07-02T04:47:29.287Z,1018.37
2018-07-02T04:48:27.025Z,1018.35
2018-07-02T04:49:27.058Z,1018.36
2018-07-02T04:50:27.088Z,1018.37
2018-07-02T04:51:27.116Z,1018.38
2018-07-02T04:52:27.151Z,1018.42
2018-07-02T04:53:27.184Z,1018.41
2018-07-02T04:54:27.216Z,1018.41
2018-07-02T04:55:27.245Z,1018.43
2018-07-02T04:56:27.277Z,1018.45
2018-07-02T04:57:27.306Z,1018.49
2018-07-02T04:58:27.343Z,1018.51
2018-07-02T04:59:27.375Z,1018.48
2018-07-02T05:00:27.402Z,1018.52
2018-07-02T05:01:27.436Z,1018.51
2018-07-02T05:02:27.471Z,1018.50
2018-07-02T05:03:27.502Z,1018.51
2018-07-02T05:04:27.540Z,1018.52
2018-07-02T05:05:27.574Z,1018.48
2018-07-02T05:06:27.599Z,1018.47
2018-07-02T05:07:27.632Z,1018.47
2018-07-02T05:08:27.668Z,1018.42
2018-07-02T05:09:27.703Z,1018.45
2018-07-02T05:10:27.741Z,1018.46
2018-07-02T05:11:27.770Z,1018.46
2018-07-02T05:12:27.801Z,1018.51
2018-07-02T05:13:27.835Z,1018.47
2018-07-02T05:14:27.873Z,1018.51
2018-07-02T05:15:27.916Z,1018.50
2018-07-02T05:16:27.942Z,1018.48
2018-07-02T05:17:27.973Z,1018.47
2018-07-02T05:18:28.004Z,1018.49
2018-07-02T05:19:28.037Z,1018.45
2018-07-02T05:20:28.075Z,1018.44
2018-07-02T05:21:28.109Z,1018.43
2018-07-02T05:22:28.142Z,1018.39
2018-07-02T05:23:28.174Z,1018.46
2018-07-02T05:24:28.234Z,1018.47
2018-07-02T05:25:28.251Z,1018.50
2018-07-02T05:26:28.287Z,1018.51
2018-07-02T05:27:28.315Z,1018.56
2018-07-02T05:28:28.343Z,1018.57
2018-07-02T05:29:28.381Z,1018.56
2018-07-02T05:30:28.419Z,1018.52
2018-07-02T05:31:28.533Z,1018.54
2018-07-02T05:32:28.482Z,1018.55
2018-07-02T05:33:28.516Z,1018.57
2018-07-02T05:34:28.552Z,1018.58
2018-07-02T05:35:28.586Z,1018.53
2018-07-02T05:36:28.627Z,1018.56
2018-07-02T05:37:28.660Z,1018.57
2018-07-02T05:38:28.686Z,1018.59
2018-07-02T05:39:28.721Z,1018.58
2018-07-02T05:40:28.765Z,1018.63
2018-07-02T05:41:28.792Z,1018.63
2018-07-02T05:42:28.826Z,1018.65
2018-07-02T05:43:28.856Z,1018.68
2018-07-02T05:44:28.886Z,1018.66
2018-07-02T05:45:28.919Z,1018.65
2018-07-02T05:46:28.954Z,1018.65
2018-07-02T05:47:28.987Z,1018.65
2018-07-02T05:48:29.051Z,1018.65
2018-07-02T05:49:29.047Z,1018.66
2018-07-02T05:50:29.082Z,1018.66
2018-07-02T05:51:29.115Z,1018.66
2018-07-02T05:52:29.148Z,1018.68
2018-07-02T05:53:29.181Z,1018.73
2018-07-02T05:54:29.207Z,1018.70
2018-07-02T05:55:29.237Z,1018.74
2018-07-02T05:56:29.273Z,1018.79
2018-07-02T05:57:29.306Z,1018.73
2018-07-02T05:58:29.338Z,1018.78
2018-07-02T05:59:29.368Z,1018.77
2018-07-02T06:00:29.474Z,1018.77
2018-07-02T06:01:29.429Z,1018.78
2018-07-02T06:02:29.502Z,1018.77
2018-07-02T06:03:29.493Z,1018.74
2018-07-02T06:04:29.519Z,1018.68
2018-07-02T06:05:29.593Z,1018.74
2018-07-02T06:06:29.586Z,1018.75
2018-07-02T06:07:29.612Z,1018.75
2018-07-02T06:08:29.647Z,1018.77
2018-07-02T06:09:29.678Z,1018.76
2018-07-02T06:10:29.708Z,1018.77
2018-07-02T06:11:29.740Z,1018.80
2018-07-02T06:12:29.775Z,1018.80
2018-07-02T06:13:29.804Z,1018.82
2018-07-02T06:14:29.835Z,1018.82
2018-07-02T06:15:29.866Z,1018.82
2018-07-02T06:16:29.900Z,1018.77
2018-07-02T06:17:29.926Z,1018.76
2018-07-02T06:18:29.966Z,1018.77
2018-07-02T06:19:29.993Z,1018.80
2018-07-02T06:20:30.023Z,1018.80
2018-07-02T06:21:30.057Z,1018.78
2018-07-02T06:22:30.089Z,1018.78
2018-07-02T06:23:30.119Z,1018.77
2018-07-02T06:24:30.158Z,1018.77
2018-07-02T06:25:30.189Z,1018.75
2018-07-02T06:26:30.216Z,1018.73
2018-07-02T06:27:30.253Z,1018.70
2018-07-02T06:28:30.285Z,1018.71
2018-07-02T06:29:30.319Z,1018.66
2018-07-02T06:30:30.374Z,1018.69
2018-07-02T06:31:30.419Z,1018.68
2018-07-02T06:32:30.415Z,1018.59
2018-07-02T06:33:30.448Z,1018.67
2018-07-02T06:34:30.484Z,1018.63
2018-07-02T06:35:30.516Z,1018.59
2018-07-02T06:36:30.545Z,1018.58
2018-07-02T06:37:30.580Z,1018.61
2018-07-02T06:38:30.609Z,1018.60
2018-07-02T06:39:30.639Z,1018.60
2018-07-02T06:40:30.677Z,1018.65
2018-07-02T06:41:30.708Z,1018.63
2018-07-02T06:42:30.738Z,1018.62
2018-07-02T06:43:30.769Z,1018.61
2018-07-02T06:44:30.806Z,1018.58
2018-07-02T06:45:30.836Z,1018.58
2018-07-02T06:46:30.865Z,1018.52
2018-07-02T06:47:30.895Z,1018.54
2018-07-02T06:48:30.950Z,1018.51
2018-07-02T06:49:30.953Z,1018.49
2018-07-02T06:50:30.985Z,1018.52
2018-07-02T06:51:31.014Z,1018.54
2018-07-02T06:52:31.049Z,1018.53
2018-07-02T06:53:31.087Z,1018.55
2018-07-02T06:54:31.120Z,1018.53
2018-07-02T06:55:31.142Z,1018.52
2018-07-02T06:56:31.167Z,1018.54
2018-07-02T06:57:31.201Z,1018.54
2018-07-02T06:58:31.229Z,1018.55
2018-07-02T06:59:31.255Z,1018.53
2018-07-02T07:00:31.285Z,1018.50
2018-07-02T07:01:31.316Z,1018.52
2018-07-02T07:02:31.345Z,1018.51
2018-07-02T07:03:31.378Z,1018.50
2018-07-02T07:04:31.413Z,1018.49
2018-07-02T07:05:31.433Z,1018.46
2018-07-02T07:06:31.468Z,1018.48
2018-07-02T07:07:31.496Z,1018.41
2018-07-02T07:08:31.594Z,1018.50
2018-07-02T07:09:31.552Z,1018.45
2018-07-02T07:10:31.581Z,1018.48
2018-07-02T07:11:31.605Z,1018.40
2018-07-02T07:12:31.634Z,1018.39
2018-07-02T07:13:31.670Z,1018.40
2018-07-02T07:14:31.697Z,1018.38
2018-07-02T07:15:31.780Z,1018.34
2018-07-02T07:16:31.751Z,1018.33
2018-07-02T07:17:31.780Z,1018.34
2018-07-02T07:18:31.817Z,1018.31
2018-07-02T07:19:31.838Z,1018.31
2018-07-02T07:20:31.869Z,1018.33
2018-07-02T07:21:31.893Z,1018.32
2018-07-02T07:22:31.921Z,1018.31
2018-07-02T07:23:31.952Z,1018.28
2018-07-02T07:24:31.983Z,1018.31
2018-07-02T07:25:32.009Z,1018.31
2018-07-02T07:26:32.040Z,1018.29
2018-07-02T07:27:32.101Z,1018.36
2018-07-02T07:28:32.089Z,1018.33
2018-07-02T07:29:32.138Z,1018.33
2018-07-02T07:30:32.147Z,1018.36
2018-07-02T07:31:32.172Z,1018.33
2018-07-02T07:32:32.200Z,1018.34
2018-07-02T07:33:32.229Z,1018.32
2018-07-02T07:34:32.257Z,1018.40
2018-07-02T07:35:32.294Z,1018.41
2018-07-02T07:36:32.322Z,1018.40
2018-07-02T07:37:32.418Z,1018.43
2018-07-02T07:38:32.367Z,1018.43
2018-07-02T07:39:32.401Z,1018.37
2018-07-02T07:40:32.427Z,1018.38
2018-07-02T07:41:32.452Z,1018.36
2018-07-02T07:42:32.480Z,1018.36
2018-07-02T07:43:32.502Z,1018.34
2018-07-02T07:44:32.530Z,1018.31
2018-07-02T07:45:32.565Z,1018.28
2018-07-02T07:46:32.593Z,1018.29
2018-07-02T07:47:32.614Z,1018.30
2018-07-02T07:48:32.641Z,1018.32
2018-07-02T07:49:32.667Z,1018.34
2018-07-02T07:50:32.695Z,1018.32
2018-07-02T07:51:32.725Z,1018.33
2018-07-02T07:52:32.752Z,1018.33
2018-07-02T07:53:32.781Z,1018.37
2018-07-02T07:54:32.804Z,1018.38
2018-07-02T07:55:32.836Z,1018.38
2018-07-02T07:56:32.861Z,1018.42
2018-07-02T07:57:32.887Z,1018.44
2018-07-02T07:58:32.917Z,1018.44
2018-07-02T07:59:32.958Z,1018.46
2018-07-02T08:00:32.966Z,1018.42
2018-07-02T08:01:33.004Z,1018.40
2018-07-02T08:02:33.026Z,1018.47
2018-07-02T08:03:33.082Z,1018.43
2018-07-02T08:04:33.074Z,1018.43
2018-07-02T08:05:33.100Z,1018.41
2018-07-02T08:06:33.127Z,1018.42
2018-07-02T08:07:33.158Z,1018.40
2018-07-02T08:08:33.190Z,1018.39
2018-07-02T08:09:33.205Z,1018.40
2018-07-02T08:10:33.259Z,1018.39
2018-07-02T08:11:33.263Z,1018.41
2018-07-02T08:12:33.296Z,1018.40
2018-07-02T08:13:33.321Z,1018.38
2018-07-02T08:14:33.347Z,1018.41
2018-07-02T08:15:33.389Z,1018.37
2018-07-02T08:16:33.394Z,1018.39
2018-07-02T08:17:33.423Z,1018.36
2018-07-02T08:18:33.455Z,1018.39
2018-07-02T08:19:33.471Z,1018.37
2018-07-02T08:20:33.503Z,1018.36
2018-07-02T08:21:33.526Z,1018.38
2018-07-02T08:22:33.554Z,1018.39
2018-07-02T08:23:33.584Z,1018.40
2018-07-02T08:24:33.618Z,1018.45
2018-07-02T08:25:33.632Z,1018.47
2018-07-02T08:26:33.676Z,1018.45
2018-07-02T08:27:33.690Z,1018.44
2018-07-02T08:28:33.715Z,1018.38
2018-07-02T08:29:33.741Z,1018.36
2018-07-02T08:30:33.768Z,1018.40
2018-07-02T08:31:33.789Z,1018.40
2018-07-02T08:32:33.815Z,1018.39
2018-07-02T08:33:33.858Z,1018.41
2018-07-02T08:34:33.872Z,1018.42
2018-07-02T08:35:33.896Z,1018.39
2018-07-02T08:36:33.920Z,1018.39
2018-07-02T08:37:33.946Z,1018.37
2018-07-02T08:38:33.972Z,1018.40
2018-07-02T08:39:34.000Z,1018.36
2018-07-02T08:40:34.034Z,1018.33
2018-07-02T08:41:34.127Z,1018.34
2018-07-02T08:42:34.077Z,1018.30
2018-07-02T08:43:34.105Z,1018.36
2018-07-02T08:44:34.135Z,1018.26
2018-07-02T08:45:34.160Z,1018.31
2018-07-02T08:46:34.186Z,1018.34
2018-07-02T08:47:34.207Z,1018.31
2018-07-02T08:48:34.227Z,1018.32
2018-07-02T08:49:34.265Z,1018.29
2018-07-02T08:50:34.287Z,1018.32
2018-07-02T08:51:34.310Z,1018.27
2018-07-02T08:52:34.388Z,1018.27
2018-07-02T08:53:34.362Z,1018.28
2018-07-02T08:54:34.388Z,1018.30
2018-07-02T08:55:34.421Z,1018.28
2018-07-02T08:56:34.444Z,1018.27
2018-07-02T08:57:34.470Z,1018.31
2018-07-02T08:58:34.545Z,1018.32
2018-07-02T08:59:34.523Z,1018.31
2018-07-02T09:00:34.543Z,1018.28
2018-07-02T09:01:34.568Z,1018.29
2018-07-02T09:02:34.592Z,1018.24
2018-07-02T09:03:34.622Z,1018.24
2018-07-02T09:04:34.648Z,1018.25
2018-07-02T09:05:34.673Z,1018.26
2018-07-02T09:06:34.692Z,1018.22
2018-07-02T09:07:34.728Z,1018.25
2018-07-02T09:08:34.752Z,1018.25
2018-07-02T09:09:34.776Z,1018.22
2018-07-02T09:10:34.802Z,1018.25
2018-07-02T09:11:34.822Z,1018.27
2018-07-02T09:12:34.848Z,1018.23
2018-07-02T09:13:34.878Z,1018.22
2018-07-02T09:14:34.907Z,1018.18
2018-07-02T09:15:34.924Z,1018.18
2018-07-02T09:16:34.950Z,1018.19
2018-07-02T09:17:34.978Z,1018.13
2018-07-02T09:18:35.004Z,1018.16
2018-07-02T09:19:35.036Z,1018.15
2018-07-02T09:20:35.058Z,1018.08
2018-07-02T09:21:35.079Z,1018.07
2018-07-02T09:22:35.107Z,1018.09
2018-07-02T09:23:35.132Z,1018.12
2018-07-02T09:24:35.158Z,1018.07
2018-07-02T09:25:35.194Z,1018.07
2018-07-02T09:26:35.209Z,1018.05
2018-07-02T09:27:35.258Z,1018.04
2018-07-02T09:28:35.260Z,1018.04
2018-07-02T09:29:35.288Z,1018.00
2018-07-02T09:30:35.313Z,1017.97
2018-07-02T09:31:35.333Z,1017.98
2018-07-02T09:32:35.369Z,1018.03
2018-07-02T09:33:35.390Z,1018.06
2018-07-02T09:34:35.411Z,1018.05
2018-07-02T09:35:35.438Z,1018.05
2018-07-02T09:36:35.464Z,1018.03
2018-07-02T09:37:35.485Z,1018.13
2018-07-02T09:38:35.512Z,1018.08
2018-07-02T09:39:35.540Z,1018.09
2018-07-02T09:40:35.566Z,1018.04
2018-07-02T09:41:35.590Z,1017.99
2018-07-02T09:42:35.615Z,1018.00
2018-07-02T09:43:35.639Z,1017.96
2018-07-02T09:44:35.660Z,1017.92
2018-07-02T09:45:35.693Z,1017.91
2018-07-02T09:46:35.716Z,1017.88
2018-07-02T09:47:35.736Z,1017.87
2018-07-02T09:48:35.763Z,1017.93
2018-07-02T09:49:36.078Z,1017.95
2018-07-02T09:50:35.814Z,1017.94
2018-07-02T09:51:35.843Z,1017.88
2018-07-02T09:52:35.872Z,1017.89
2018-07-02T09:53:35.888Z,1017.90
2018-07-02T09:54:35.914Z,1017.93
2018-07-02T09:55:35.947Z,1017.89
2018-07-02T09:56:35.969Z,1017.85
2018-07-02T09:57:35.995Z,1017.82
2018-07-02T09:58:36.019Z,1017.83
2018-07-02T09:59:36.043Z,1017.78
2018-07-02T10:00:36.081Z,1017.75
2018-07-02T10:01:36.092Z,1017.74
2018-07-02T10:02:36.119Z,1017.75
2018-07-02T10:03:36.138Z,1017.76
2018-07-02T10:04:36.166Z,1017.75
2018-07-02T10:05:36.191Z,1017.72
2018-07-02T10:06:36.283Z,1017.73
2018-07-02T10:07:36.248Z,1017.74
2018-07-02T10:08:36.271Z,1017.76
2018-07-02T10:09:36.293Z,1017.73
2018-07-02T10:10:36.318Z,1017.71
2018-07-02T10:11:36.341Z,1017.70
2018-07-02T10:12:36.434Z,1017.78
2018-07-02T10:13:36.395Z,1017.75
2018-07-02T10:14:36.424Z,1017.73
2018-07-02T10:15:36.442Z,1017.70
2018-07-02T10:16:36.465Z,1017.69
2018-07-02T10:17:36.494Z,1017.79
2018-07-02T10:18:36.519Z,1017.82
2018-07-02T10:19:36.541Z,1017.80
2018-07-02T10:20:36.569Z,1017.83
2018-07-02T10:21:36.590Z,1017.81
2018-07-02T10:22:36.614Z,1017.81
2018-07-02T10:23:37.337Z,1017.81
2018-07-02T10:24:36.668Z,1017.84
2018-07-02T10:25:36.692Z,1017.87
2018-07-02T10:26:36.717Z,1017.82
2018-07-02T10:27:36.744Z,1017.82
2018-07-02T10:28:36.769Z,1017.76
2018-07-02T10:29:36.793Z,1017.78
2018-07-02T10:30:36.826Z,1017.80
2018-07-02T10:31:36.852Z,1017.76
2018-07-02T10:32:36.864Z,1017.73
2018-07-02T10:33:36.892Z,1017.76
2018-07-02T10:34:36.921Z,1017.75
2018-07-02T10:35:36.944Z,1017.77
2018-07-02T10:36:36.964Z,1017.81
2018-07-02T10:37:36.992Z,1017.77
2018-07-02T10:38:37.018Z,1017.79
2018-07-02T10:39:37.043Z,1017.76
2018-07-02T10:40:37.073Z,1017.77
2018-07-02T10:41:37.089Z,1017.76
2018-07-02T10:42:37.112Z,1017.76
2018-07-02T10:43:37.142Z,1017.72
2018-07-02T10:44:37.164Z,1017.76
2018-07-02T10:45:37.192Z,1017.72
2018-07-02T10:46:37.216Z,1017.71
2018-07-02T10:47:37.239Z,1017.72
2018-07-02T10:48:37.265Z,1017.74
2018-07-02T10:49:37.293Z,1017.71
2018-07-02T10:50:37.318Z,1017.70
2018-07-02T10:51:37.337Z,1017.66
2018-07-02T10:52:37.361Z,1017.66
2018-07-02T10:53:37.384Z,1017.63
2018-07-02T10:54:37.409Z,1017.54
2018-07-02T10:55:37.463Z,1017.60
2018-07-02T10:56:37.464Z,1017.58
2018-07-02T10:57:37.488Z,1017.58
2018-07-02T10:58:37.507Z,1017.63
2018-07-02T10:59:37.542Z,1017.64
2018-07-02T11:00:37.567Z,1017.67
2018-07-02T11:01:37.587Z,1017.66
2018-07-02T11:02:37.614Z,1017.65
2018-07-02T11:03:37.632Z,1017.64
2018-07-02T11:04:37.658Z,1017.67
2018-07-02T11:05:37.682Z,1017.57
2018-07-02T11:06:37.707Z,1017.59
2018-07-02T11:07:37.735Z,1017.60
2018-07-02T11:08:37.769Z,1017.60
2018-07-02T11:09:37.789Z,1017.64
2018-07-02T11:10:37.811Z,1017.63
2018-07-02T11:11:38.603Z,1017.60
2018-07-02T11:12:37.858Z,1017.60
2018-07-02T11:13:37.884Z,1017.57
2018-07-02T11:14:37.908Z,1017.58
2018-07-02T11:15:37.929Z,1017.60
2018-07-02T11:16:37.953Z,1017.57
2018-07-02T11:17:37.994Z,1017.57
2018-07-02T11:18:38.006Z,1017.58
2018-07-02T11:19:38.031Z,1017.57
2018-07-02T11:20:38.067Z,1017.53
2018-07-02T11:21:38.087Z,1017.54
2018-07-02T11:22:38.108Z,1017.56
2018-07-02T11:23:38.147Z,1017.50
2018-07-02T11:24:38.159Z,1017.55
2018-07-02T11:25:38.185Z,1017.55
2018-07-02T11:26:38.204Z,1017.51
2018-07-02T11:27:38.230Z,1017.53
2018-07-02T11:28:38.254Z,1017.51
2018-07-02T11:29:38.283Z,1017.45
2018-07-02T11:30:38.308Z,1017.44
2018-07-02T11:31:38.328Z,1017.45
2018-07-02T11:32:38.352Z,1017.43
2018-07-02T11:33:38.375Z,1017.40
2018-07-02T11:34:38.400Z,1017.43
2018-07-02T11:35:38.426Z,1017.35
2018-07-02T11:36:38.453Z,1017.42
2018-07-02T11:37:38.473Z,1017.44
2018-07-02T11:38:38.502Z,1017.40
2018-07-02T11:39:38.525Z,1017.44
2018-07-02T11:40:38.556Z,1017.40
2018-07-02T11:41:38.581Z,1017.43
2018-07-02T11:42:38.600Z,1017.45
2018-07-02T11:43:38.624Z,1017.43
2018-07-02T11:44:38.663Z,1017.34
2018-07-02T11:45:38.676Z,1017.31
2018-07-02T11:46:38.712Z,1017.35
2018-07-02T11:47:38.717Z,1017.29
2018-07-02T11:48:38.743Z,1017.27
2018-07-02T11:49:38.817Z,1017.26
2018-07-02T11:50:38.795Z,1017.28
2018-07-02T11:51:38.824Z,1017.30
2018-07-02T11:52:38.850Z,1017.35
2018-07-02T11:53:38.871Z,1017.31
2018-07-02T11:54:38.893Z,1017.35
2018-07-02T11:55:38.923Z,1017.35
2018-07-02T11:56:38.945Z,1017.38
2018-07-02T11:57:38.973Z,1017.38
2018-07-02T11:58:38.993Z,1017.38
2018-07-02T11:59:39.013Z,1017.34
2018-07-02T12:00:39.034Z,1017.34
2018-07-02T12:01:39.068Z,1017.32
2018-07-02T12:02:39.093Z,1017.34
2018-07-02T12:03:39.191Z,1017.32
2018-07-02T12:04:39.139Z,1017.32
2018-07-02T12:05:39.161Z,1017.32